Dry Prong, Louisiana
Current Conditions -  °F | °C
As of 10:16 AM on Monday 22 Dec 2014 (Local Time) from KAEX Reporting Station
Moderate Fog Moderate Fog  
Wind Chill: 55°   Ceiling: 200
Heat Index: 55°   Visibility: 0.25mi
Dew Point: 55°   Wind: 10mph
Humidity: 100%   Direction: 140°SE
Pressure: 29.76"   Gusts: NA
Location:  31.58°N, 92.53°W
Report Text: KAEX 221616Z AUTO 14009KT 1/4SM FG VV002 13/13 A2976 RMK AO2 T01280128
Loading
Personal Weather Stations






























Interactive Weather Map New forecast layout! Learn more

10-Day Weather Forecast

Advertisements
Track Severe Weather on mobile